createdAt,value
2023-05-21T00:01:42.392Z,11.57
2023-05-21T00:04:29.723Z,12.00
2023-05-21T00:07:18.700Z,13.02
2023-05-21T00:10:06.824Z,14.07
2023-05-21T00:12:53.700Z,15.23
2023-05-21T00:15:41.062Z,15.48
2023-05-21T00:18:28.167Z,15.88
2023-05-21T00:21:17.252Z,16.40
2023-05-21T00:24:04.233Z,16.00
2023-05-21T00:26:51.094Z,15.55
2023-05-21T00:29:38.285Z,16.02
2023-05-21T00:32:25.215Z,15.05
2023-05-21T00:35:12.760Z,13.00
2023-05-21T00:37:59.801Z,12.93
2023-05-21T00:40:48.967Z,11.95
2023-05-21T00:43:36.043Z,12.68
2023-05-21T00:46:23.070Z,10.55
2023-05-21T00:49:11.145Z,11.35
2023-05-21T00:52:01.400Z,10.90
2023-05-21T00:54:49.968Z,11.80
2023-05-21T00:57:37.342Z,11.05
2023-05-21T01:00:26.474Z,12.90
2023-05-21T01:03:13.966Z,13.15
2023-05-21T01:06:00.990Z,14.50
2023-05-21T01:08:48.509Z,14.55
2023-05-21T01:11:44.882Z,14.98
2023-05-21T01:14:32.862Z,14.93
2023-05-21T01:17:24.345Z,14.70
2023-05-21T01:20:11.981Z,15.30
2023-05-21T01:22:59.447Z,15.45
2023-05-21T01:25:47.256Z,15.35
2023-05-21T01:28:34.702Z,16.02
2023-05-21T01:31:41.489Z,14.65
2023-05-21T01:35:02.408Z,14.65
2023-05-21T01:38:03.658Z,14.55
2023-05-21T01:40:58.867Z,15.45
2023-05-21T01:43:47.433Z,14.98
2023-05-21T01:46:36.581Z,15.55
2023-05-21T01:49:23.888Z,14.88
2023-05-21T01:52:10.828Z,13.60
2023-05-21T01:55:03.313Z,14.63
2023-05-21T01:57:54.634Z,12.10
2023-05-21T02:00:41.981Z,12.27
2023-05-21T02:03:31.082Z,10.80
2023-05-21T02:06:18.208Z,10.73
2023-05-21T02:09:05.534Z,10.15
2023-05-21T02:11:52.388Z,10.45
2023-05-21T02:14:39.515Z,9.65
2023-05-21T02:17:26.518Z,9.13
2023-05-21T02:20:14.881Z,9.93
2023-05-21T02:23:01.882Z,10.82
2023-05-21T02:25:49.000Z,9.75
2023-05-21T02:28:36.377Z,10.90
2023-05-21T02:31:23.403Z,9.38
2023-05-21T02:34:11.012Z,10.80
2023-05-21T02:37:01.141Z,11.32
2023-05-21T02:39:47.974Z,11.75
2023-05-21T02:42:36.558Z,11.15
2023-05-21T02:45:23.531Z,11.00
2023-05-21T02:48:11.628Z,10.50
2023-05-21T02:50:59.129Z,11.73
2023-05-21T02:53:46.232Z,11.93
2023-05-21T02:56:33.083Z,12.88
2023-05-21T02:59:19.934Z,11.77
2023-05-21T03:02:06.920Z,11.90
2023-05-21T03:04:54.222Z,11.38
2023-05-21T03:07:42.441Z,12.32
2023-05-21T03:10:29.395Z,12.18
2023-05-21T03:13:16.530Z,12.10
2023-05-21T03:16:03.619Z,13.23
2023-05-21T03:18:50.483Z,11.85
2023-05-21T03:21:37.621Z,13.30
2023-05-21T03:24:24.604Z,13.38
2023-05-21T03:27:11.501Z,15.48
2023-05-21T03:29:59.456Z,15.57
2023-05-21T03:32:47.714Z,15.70
2023-05-21T03:35:34.868Z,16.50
2023-05-21T03:38:21.993Z,15.27
2023-05-21T03:41:09.198Z,15.30
2023-05-21T03:43:56.203Z,15.18
2023-05-21T03:46:45.038Z,14.80
2023-05-21T03:49:31.978Z,15.38
2023-05-21T03:52:18.842Z,14.07
2023-05-21T03:55:06.775Z,13.57
2023-05-21T03:57:53.644Z,13.68
2023-05-21T04:00:40.811Z,14.43
2023-05-21T04:03:27.868Z,15.32
2023-05-21T04:06:16.004Z,15.00
2023-05-21T04:09:02.881Z,15.10
2023-05-21T04:11:49.821Z,15.98
2023-05-21T04:14:40.333Z,15.15
2023-05-21T04:17:28.554Z,15.07
2023-05-21T04:20:16.894Z,16.50
2023-05-21T04:23:03.847Z,18.50
2023-05-21T04:25:51.138Z,15.45
2023-05-21T04:28:42.013Z,15.82
2023-05-21T04:31:31.681Z,17.17
2023-05-21T04:34:18.904Z,16.77
2023-05-21T04:37:06.880Z,17.75
2023-05-21T04:39:57.113Z,17.92
2023-05-21T04:42:48.370Z,17.48
2023-05-21T04:45:36.002Z,17.30
2023-05-21T04:48:24.851Z,18.60
2023-05-21T04:51:11.950Z,17.48
2023-05-21T04:53:59.680Z,18.75
2023-05-21T04:56:47.432Z,19.10
2023-05-21T04:59:35.156Z,21.42
2023-05-21T05:02:22.059Z,20.58
2023-05-21T05:05:09.248Z,19.02
2023-05-21T05:07:57.608Z,17.83
2023-05-21T05:10:44.448Z,17.92
2023-05-21T05:13:31.383Z,20.08
2023-05-21T05:16:24.926Z,18.83
2023-05-21T05:19:12.095Z,17.95
2023-05-21T05:21:58.986Z,19.95
2023-05-21T05:24:45.841Z,18.50
2023-05-21T05:27:32.668Z,19.23
2023-05-21T05:30:20.409Z,17.92
2023-05-21T05:33:07.294Z,27.58
2023-05-21T05:35:54.347Z,20.67
2023-05-21T05:38:41.459Z,20.35
2023-05-21T05:41:28.410Z,26.33
2023-05-21T05:44:15.327Z,19.55
2023-05-21T05:47:11.512Z,22.25
2023-05-21T05:49:58.656Z,18.75
2023-05-21T05:52:45.534Z,19.45
2023-05-21T05:55:32.388Z,20.10
2023-05-21T05:58:19.334Z,21.10
2023-05-21T06:01:06.211Z,19.70
2023-05-21T06:03:53.271Z,18.13
2023-05-21T06:06:40.199Z,19.85
2023-05-21T06:09:27.169Z,19.67
2023-05-21T06:12:15.992Z,19.63
2023-05-21T06:15:03.054Z,19.33
2023-05-21T06:17:50.047Z,18.73
2023-05-21T06:20:37.202Z,18.67
2023-05-21T06:23:24.072Z,19.67
2023-05-21T06:26:11.084Z,19.25
2023-05-21T06:28:57.933Z,18.02
2023-05-21T06:31:44.831Z,18.92
2023-05-21T06:34:31.678Z,20.05
2023-05-21T06:37:22.028Z,20.10
2023-05-21T06:40:09.630Z,18.23
2023-05-21T06:42:56.696Z,19.60
2023-05-21T06:45:43.655Z,18.85
2023-05-21T06:48:30.562Z,19.73
2023-05-21T06:51:17.497Z,18.38
2023-05-21T06:54:04.798Z,19.20
2023-05-21T06:56:51.679Z,17.98
2023-05-21T06:59:38.622Z,19.45
2023-05-21T07:02:25.929Z,18.90
2023-05-21T07:05:12.934Z,19.10
2023-05-21T07:07:59.778Z,17.60
2023-05-21T07:10:46.658Z,19.65
2023-05-21T07:13:35.782Z,18.92
2023-05-21T07:16:22.800Z,18.17
2023-05-21T07:19:09.794Z,18.48
2023-05-21T07:21:57.724Z,18.85
2023-05-21T07:24:44.590Z,18.10
2023-05-21T07:27:31.837Z,19.13
2023-05-21T07:30:19.934Z,17.42
2023-05-21T07:33:06.997Z,18.10
2023-05-21T07:35:53.858Z,17.92
2023-05-21T07:38:40.850Z,18.30
2023-05-21T07:41:27.788Z,21.25
2023-05-21T07:44:14.740Z,19.27
2023-05-21T07:47:01.612Z,19.48
2023-05-21T07:49:48.456Z,17.42
2023-05-21T07:52:35.485Z,17.15
2023-05-21T07:55:22.423Z,18.60
2023-05-21T07:58:09.373Z,17.83
2023-05-21T08:00:57.316Z,17.98
2023-05-21T08:03:44.320Z,17.63
2023-05-21T08:06:31.676Z,18.05
2023-05-21T08:09:19.370Z,17.00
2023-05-21T08:12:06.732Z,19.10
2023-05-21T08:14:53.653Z,19.35
2023-05-21T08:17:41.027Z,17.73
2023-05-21T08:20:29.060Z,17.60
2023-05-21T08:23:16.024Z,16.75
2023-05-21T08:26:02.937Z,16.73
2023-05-21T08:28:49.849Z,16.85
2023-05-21T08:31:36.776Z,16.63
2023-05-21T08:34:23.702Z,16.92
2023-05-21T08:37:10.615Z,17.48
2023-05-21T08:39:57.478Z,16.40
2023-05-21T08:42:49.134Z,17.15
2023-05-21T08:45:41.557Z,16.43
2023-05-21T08:48:29.192Z,16.33
2023-05-21T08:51:16.884Z,15.93
2023-05-21T08:54:04.981Z,16.35
2023-05-21T08:56:53.456Z,14.95
2023-05-21T08:59:44.167Z,15.00
2023-05-21T09:02:34.385Z,16.25
2023-05-21T09:05:22.645Z,14.73
2023-05-21T09:08:24.378Z,16.20
2023-05-21T09:11:11.817Z,14.93
2023-05-21T09:14:00.877Z,15.00
2023-05-21T09:16:48.789Z,13.70
2023-05-21T09:19:36.078Z,13.50
2023-05-21T09:22:23.752Z,15.23
2023-05-21T09:25:12.174Z,15.18
2023-05-21T09:27:59.631Z,14.15
2023-05-21T09:30:47.535Z,13.63
2023-05-21T09:33:34.413Z,13.43
2023-05-21T09:36:21.988Z,14.60
2023-05-21T09:39:08.903Z,13.32
2023-05-21T09:41:58.904Z,13.70
2023-05-21T09:44:45.938Z,13.07
2023-05-21T09:47:32.845Z,12.95
2023-05-21T09:50:22.116Z,14.07
2023-05-21T09:53:13.686Z,14.25
2023-05-21T09:56:00.620Z,13.18
2023-05-21T09:58:47.608Z,13.52
2023-05-21T10:01:34.899Z,13.63
2023-05-21T10:04:23.386Z,13.88
2023-05-21T10:07:10.548Z,12.98
2023-05-21T10:09:57.939Z,12.95
2023-05-21T10:12:50.127Z,12.10
2023-05-21T10:15:44.255Z,11.95
2023-05-21T10:18:33.401Z,13.02
2023-05-21T10:21:22.916Z,12.85
2023-05-21T10:24:10.836Z,13.05
2023-05-21T10:26:57.885Z,12.30
2023-05-21T10:29:46.023Z,12.60
2023-05-21T10:32:34.025Z,12.57
2023-05-21T10:35:21.602Z,11.00
2023-05-21T10:38:09.706Z,11.85
2023-05-21T10:40:57.518Z,12.27
2023-05-21T10:43:51.783Z,11.85
2023-05-21T10:46:48.823Z,11.63
2023-05-21T10:50:05.143Z,12.65
2023-05-21T10:52:57.933Z,10.65
2023-05-21T10:55:54.015Z,12.48
2023-05-21T10:58:59.020Z,11.60
2023-05-21T11:01:46.116Z,11.07
2023-05-21T11:04:34.881Z,10.93
2023-05-21T11:07:24.618Z,10.75
2023-05-21T11:10:37.887Z,10.48
2023-05-21T11:13:27.051Z,10.32
2023-05-21T11:16:15.781Z,10.38
2023-05-21T11:19:04.147Z,11.57
2023-05-21T11:21:51.474Z,10.73
2023-05-21T11:24:41.375Z,11.00
2023-05-21T11:27:34.695Z,11.10
2023-05-21T11:30:21.576Z,12.07
2023-05-21T11:33:08.410Z,12.25
2023-05-21T11:35:57.288Z,12.00
2023-05-21T11:39:10.858Z,12.00
2023-05-21T11:42:04.405Z,11.00
2023-05-21T11:44:51.654Z,11.73
2023-05-21T11:47:40.295Z,11.25
2023-05-21T11:50:27.407Z,11.30
2023-05-21T11:53:14.726Z,10.73
2023-05-21T11:56:02.188Z,10.88
2023-05-21T11:58:49.089Z,11.20
2023-05-21T12:01:35.938Z,10.63
2023-05-21T12:04:23.221Z,10.52
2023-05-21T12:07:13.276Z,10.40
2023-05-21T12:10:00.316Z,9.85
2023-05-21T12:12:54.905Z,11.13
2023-05-21T12:15:45.519Z,9.55
2023-05-21T12:18:32.392Z,10.90
2023-05-21T12:21:19.244Z,10.80
2023-05-21T12:24:06.410Z,10.35
2023-05-21T12:26:55.108Z,12.32
2023-05-21T12:29:46.362Z,10.68
2023-05-21T12:32:33.287Z,10.77
2023-05-21T12:35:22.283Z,11.10
2023-05-21T12:38:09.836Z,10.98
2023-05-21T12:40:56.971Z,11.15
2023-05-21T12:43:43.990Z,9.75
2023-05-21T12:46:30.970Z,10.65
2023-05-21T12:49:37.753Z,10.57
2023-05-21T12:52:25.016Z,10.30
2023-05-21T12:55:14.767Z,11.13
2023-05-21T12:58:04.378Z,10.43
2023-05-21T13:00:54.978Z,10.43
2023-05-21T13:03:42.983Z,9.70
2023-05-21T13:06:29.867Z,8.98
2023-05-21T13:09:16.735Z,9.25
2023-05-21T13:12:03.879Z,9.48
2023-05-21T13:14:51.953Z,9.30
2023-05-21T13:17:38.923Z,8.93
2023-05-21T13:20:27.463Z,9.63
2023-05-21T13:23:16.165Z,9.70
2023-05-21T13:26:03.018Z,9.48
2023-05-21T13:28:49.897Z,8.95
2023-05-21T13:31:36.902Z,9.07
2023-05-21T13:34:23.792Z,9.38
2023-05-21T13:37:10.694Z,10.20
2023-05-21T13:39:57.954Z,8.80
2023-05-21T13:42:46.573Z,9.30
2023-05-21T13:45:33.937Z,8.27
2023-05-21T13:48:20.857Z,9.30
2023-05-21T13:51:07.862Z,8.95
2023-05-21T13:53:56.224Z,8.45
2023-05-21T13:56:43.752Z,8.88
2023-05-21T13:59:33.285Z,8.45
2023-05-21T14:02:20.745Z,8.07
2023-05-21T14:05:08.130Z,7.75
2023-05-21T14:07:55.024Z,8.75
2023-05-21T14:10:42.254Z,7.10
2023-05-21T14:13:29.191Z,8.43
2023-05-21T14:16:16.251Z,7.38
2023-05-21T14:19:03.197Z,7.75
2023-05-21T14:21:52.449Z,7.78
2023-05-21T14:24:39.310Z,7.93
2023-05-21T14:27:26.346Z,7.63
2023-05-21T14:30:13.237Z,7.28
2023-05-21T14:33:00.185Z,8.07
2023-05-21T14:35:47.967Z,8.70
2023-05-21T14:38:34.857Z,8.70
2023-05-21T14:41:26.638Z,8.13
2023-05-21T14:44:13.590Z,8.37
2023-05-21T14:47:00.483Z,8.60
2023-05-21T14:49:48.154Z,8.88
2023-05-21T14:52:35.895Z,8.13
2023-05-21T14:55:22.919Z,8.55
2023-05-21T14:58:09.951Z,8.93
2023-05-21T15:00:56.862Z,8.20
2023-05-21T15:03:44.052Z,8.23
2023-05-21T15:06:30.978Z,7.60
2023-05-21T15:09:17.906Z,8.15
2023-05-21T15:12:05.259Z,7.95
2023-05-21T15:14:53.055Z,8.02
2023-05-21T15:17:40.866Z,8.80
2023-05-21T15:20:27.850Z,8.13
2023-05-21T15:23:17.193Z,7.35
2023-05-21T15:26:05.015Z,8.32
2023-05-21T15:28:51.920Z,8.15
2023-05-21T15:31:39.494Z,9.18
2023-05-21T15:34:26.647Z,8.20
2023-05-21T15:37:16.571Z,8.77
2023-05-21T15:40:04.138Z,7.57
2023-05-21T15:42:51.018Z,7.15
2023-05-21T15:45:38.816Z,7.90
2023-05-21T15:48:26.053Z,7.72
2023-05-21T15:51:12.903Z,9.18
2023-05-21T15:53:59.858Z,7.70
2023-05-21T15:56:46.735Z,8.43
2023-05-21T15:59:33.619Z,7.28
2023-05-21T16:02:20.443Z,7.35
2023-05-21T16:05:07.558Z,7.88
2023-05-21T16:07:54.425Z,7.90
2023-05-21T16:10:41.468Z,7.78
2023-05-21T16:13:28.400Z,7.07
2023-05-21T16:16:15.606Z,7.80
2023-05-21T16:19:02.571Z,7.65
2023-05-21T16:21:49.933Z,7.28
2023-05-21T16:24:37.272Z,8.23
2023-05-21T16:27:25.025Z,8.07
2023-05-21T16:30:12.236Z,7.70
2023-05-21T16:32:59.172Z,8.27
2023-05-21T16:35:46.441Z,8.40
2023-05-21T16:38:33.382Z,7.85
2023-05-21T16:41:20.267Z,7.05
2023-05-21T16:44:07.252Z,7.82
2023-05-21T16:46:54.319Z,8.73
2023-05-21T16:49:41.253Z,7.95
2023-05-21T16:52:28.165Z,8.30
2023-05-21T16:55:15.226Z,7.88
2023-05-21T16:58:05.531Z,9.25
2023-05-21T17:00:52.461Z,8.13
2023-05-21T17:03:41.622Z,7.95
2023-05-21T17:06:30.032Z,8.10
2023-05-21T17:09:18.716Z,8.45
2023-05-21T17:12:06.136Z,8.90
2023-05-21T17:14:53.924Z,8.45
2023-05-21T17:17:40.914Z,7.60
2023-05-21T17:20:27.885Z,8.32
2023-05-21T17:23:15.031Z,7.55
2023-05-21T17:26:02.105Z,7.07
2023-05-21T17:28:48.983Z,7.63
2023-05-21T17:31:36.560Z,8.43
2023-05-21T17:34:26.612Z,7.50
2023-05-21T17:37:13.485Z,7.35
2023-05-21T17:40:00.370Z,9.23
2023-05-21T17:42:47.568Z,7.05
2023-05-21T17:45:34.724Z,7.57
2023-05-21T17:48:21.902Z,7.55
2023-05-21T17:51:08.986Z,7.30
2023-05-21T17:53:56.167Z,7.35
2023-05-21T17:56:45.606Z,8.77
2023-05-21T17:59:33.210Z,7.95
2023-05-21T18:02:23.414Z,8.07
2023-05-21T18:05:10.411Z,8.73
2023-05-21T18:07:57.524Z,7.53
2023-05-21T18:10:45.426Z,7.18
2023-05-21T18:13:32.373Z,7.78
2023-05-21T18:16:19.801Z,8.13
2023-05-21T18:19:06.893Z,6.78
2023-05-21T18:21:53.794Z,7.15
2023-05-21T18:24:40.912Z,7.53
2023-05-21T18:27:27.758Z,7.10
2023-05-21T18:30:14.794Z,8.32
2023-05-21T18:33:02.229Z,8.18
2023-05-21T18:35:49.145Z,7.80
2023-05-21T18:38:36.045Z,8.00
2023-05-21T18:41:22.960Z,8.95
2023-05-21T18:44:09.803Z,8.20
2023-05-21T18:46:57.878Z,8.07
2023-05-21T18:49:44.815Z,7.30
2023-05-21T18:52:31.711Z,8.35
2023-05-21T18:55:18.809Z,7.75
2023-05-21T18:58:05.862Z,8.05
2023-05-21T19:00:52.793Z,8.25
2023-05-21T19:03:39.684Z,7.55
2023-05-21T19:06:27.734Z,8.40
2023-05-21T19:09:14.652Z,7.50
2023-05-21T19:12:01.773Z,7.60
2023-05-21T19:14:48.797Z,8.32
2023-05-21T19:17:39.000Z,8.00
2023-05-21T19:20:28.888Z,7.63
2023-05-21T19:23:16.146Z,7.72
2023-05-21T19:26:03.071Z,8.25
2023-05-21T19:28:54.321Z,9.13
2023-05-21T19:31:41.523Z,8.45
2023-05-21T19:34:28.497Z,8.25
2023-05-21T19:37:15.727Z,7.80
2023-05-21T19:40:02.707Z,8.30
2023-05-21T19:42:49.647Z,8.25
2023-05-21T19:45:36.508Z,7.13
2023-05-21T19:48:23.371Z,8.80
2023-05-21T19:51:10.321Z,8.48
2023-05-21T19:53:57.466Z,8.05
2023-05-21T19:56:44.304Z,8.00
2023-05-21T19:59:31.222Z,7.53
2023-05-21T20:02:19.029Z,7.97
2023-05-21T20:05:06.822Z,7.80
2023-05-21T20:07:53.725Z,7.32
2023-05-21T20:10:40.944Z,8.23
2023-05-21T20:13:28.198Z,8.30
2023-05-21T20:16:15.170Z,7.47
2023-05-21T20:19:03.730Z,7.60
2023-05-21T20:21:51.109Z,7.63
2023-05-21T20:24:37.961Z,7.97
2023-05-21T20:27:24.903Z,7.35
2023-05-21T20:30:11.997Z,8.55
2023-05-21T20:33:03.474Z,8.20
2023-05-21T20:35:50.478Z,8.10
2023-05-21T20:38:38.185Z,7.95
2023-05-21T20:41:25.287Z,9.05
2023-05-21T20:44:13.707Z,9.23
2023-05-21T20:47:01.769Z,8.00
2023-05-21T20:49:48.683Z,9.05
2023-05-21T20:52:36.213Z,9.18
2023-05-21T20:55:23.100Z,8.95
2023-05-21T20:58:11.038Z,8.73
2023-05-21T21:00:57.925Z,7.75
2023-05-21T21:03:48.268Z,9.15
2023-05-21T21:06:38.314Z,9.30
2023-05-21T21:09:25.422Z,9.02
2023-05-21T21:12:24.716Z,9.63
2023-05-21T21:15:13.760Z,10.43
2023-05-21T21:18:00.848Z,9.20
2023-05-21T21:20:49.796Z,9.60
2023-05-21T21:23:36.857Z,9.05
2023-05-21T21:26:24.038Z,9.85
2023-05-21T21:29:11.001Z,10.18
2023-05-21T21:31:57.890Z,9.75
2023-05-21T21:34:44.783Z,9.20
2023-05-21T21:37:31.681Z,9.88
2023-05-21T21:40:18.575Z,10.18
2023-05-21T21:43:05.415Z,9.57
2023-05-21T21:45:52.399Z,11.52
2023-05-21T21:48:39.506Z,12.35
2023-05-21T21:51:26.455Z,11.48
2023-05-21T21:54:13.324Z,11.80
2023-05-21T21:57:00.859Z,11.55
2023-05-21T21:59:47.925Z,10.98
2023-05-21T22:02:35.214Z,10.10
2023-05-21T22:05:22.392Z,10.82
2023-05-21T22:08:09.410Z,11.55
2023-05-21T22:10:56.344Z,9.88
2023-05-21T22:13:44.283Z,10.88
2023-05-21T22:16:31.194Z,10.88
2023-05-21T22:19:20.556Z,10.93
2023-05-21T22:22:07.521Z,11.32
2023-05-21T22:24:54.506Z,11.80
2023-05-21T22:27:42.312Z,12.05
2023-05-21T22:30:29.215Z,11.20
2023-05-21T22:33:16.211Z,11.27
2023-05-21T22:36:03.246Z,11.00
2023-05-21T22:38:50.116Z,10.55
2023-05-21T22:41:37.376Z,11.07
2023-05-21T22:44:24.275Z,11.57
2023-05-21T22:47:11.469Z,10.75
2023-05-21T22:50:00.645Z,11.00
2023-05-21T22:52:47.566Z,11.45
2023-05-21T22:55:34.425Z,10.60
2023-05-21T22:58:21.326Z,11.00
2023-05-21T23:01:08.261Z,11.85
2023-05-21T23:03:55.143Z,11.73
2023-05-21T23:06:42.385Z,10.73
2023-05-21T23:09:29.320Z,10.02
2023-05-21T23:12:16.488Z,10.95
2023-05-21T23:15:05.372Z,11.30
2023-05-21T23:17:52.319Z,10.57
2023-05-21T23:20:41.097Z,11.15
2023-05-21T23:23:28.647Z,11.05
2023-05-21T23:26:15.995Z,10.90
2023-05-21T23:29:03.269Z,11.63
2023-05-21T23:31:50.607Z,10.48
2023-05-21T23:34:37.477Z,10.90
2023-05-21T23:37:24.414Z,9.77
2023-05-21T23:40:12.065Z,11.18
2023-05-21T23:42:58.969Z,11.30
2023-05-21T23:45:45.934Z,11.02
2023-05-21T23:48:33.259Z,10.68
2023-05-21T23:51:20.181Z,10.05
2023-05-21T23:54:08.180Z,10.70
2023-05-21T23:56:55.124Z,11.23
2023-05-21T23:59:41.998Z,11.63
